Time;durP1;ratioP1;P1;durP2;ratioP2;P2;SDS_P1;SDS_P2;PMS_P1;PMS_P2;Temp;Humidity;BMP_temperature;BMP_pressure;BME280_temperature;BME280_humidity;BME280_pressure;Samples;Min_cycle;Max_cycle;Signal;HPM_P1;HPM_P2
2023/01/24 00:01:30;;;;;;;34.67;25.57;;;0.60;99.90;;;;;;6125854;23;20504;-80
2023/01/24 00:04:01;;;;;;;33.73;24.83;;;0.60;99.90;;;;;;6125037;23;20188;-78
2023/01/24 00:06:30;;;;;;;33.90;24.97;;;0.70;99.90;;;;;;6125430;23;20206;-78
2023/01/24 00:08:59;;;;;;;38.67;27.13;;;0.70;99.90;;;;;;6125410;23;20349;-77
2023/01/24 00:11:30;;;;;;;37.90;26.03;;;0.70;99.90;;;;;;6125328;23;20190;-77
2023/01/24 00:13:58;;;;;;;35.30;26.33;;;0.60;99.90;;;;;;6125625;23;20387;-79
2023/01/24 00:16:27;;;;;;;37.87;25.53;;;0.60;99.90;;;;;;6125236;23;20345;-78
2023/01/24 00:18:58;;;;;;;33.80;24.30;;;0.60;99.90;;;;;;6124981;23;20403;-77
2023/01/24 00:21:26;;;;;;;32.13;22.93;;;0.60;99.90;;;;;;6125726;23;20511;-77
2023/01/24 00:23:55;;;;;;;31.20;23.07;;;0.60;99.90;;;;;;6124862;23;20758;-78
2023/01/24 00:26:25;;;;;;;32.30;23.37;;;0.60;99.90;;;;;;6125032;23;20269;-78
2023/01/24 00:28:53;;;;;;;34.53;23.97;;;0.60;99.90;;;;;;6125133;23;20185;-77
2023/01/24 00:31:22;;;;;;;32.50;22.60;;;0.60;99.90;;;;;;6125651;23;20230;-77
2023/01/24 00:33:51;;;;;;;33.20;22.67;;;0.50;99.90;;;;;;6125423;23;20236;-78
2023/01/24 00:36:20;;;;;;;34.33;23.93;;;0.50;99.90;;;;;;6125020;23;20969;-77
2023/01/24 00:38:48;;;;;;;33.13;22.87;;;0.50;99.90;;;;;;6125398;23;20193;-78
2023/01/24 00:41:16;;;;;;;32.63;23.87;;;0.50;99.90;;;;;;6124978;23;20635;-78
2023/01/24 00:43:45;;;;;;;34.77;24.50;;;0.50;99.90;;;;;;6124411;23;20268;-77
2023/01/24 00:46:13;;;;;;;33.43;24.00;;;0.50;99.90;;;;;;6125143;23;20220;-77
2023/01/24 00:48:41;;;;;;;32.63;23.77;;;0.40;99.90;;;;;;6125301;23;20186;-79
2023/01/24 00:51:11;;;;;;;31.90;23.80;;;0.50;99.90;;;;;;6124960;23;20393;-77
2023/01/24 00:53:43;;;;;;;35.30;24.17;;;0.50;99.90;;;;;;6124883;23;20224;-79
2023/01/24 00:56:12;;;;;;;33.83;24.50;;;0.40;99.90;;;;;;6124770;23;20257;-78
2023/01/24 00:58:40;;;;;;;33.93;24.57;;;0.50;99.90;;;;;;6124729;23;20269;-78
2023/01/24 01:01:08;;;;;;;34.83;24.23;;;0.50;99.90;;;;;;6124535;23;20266;-78
2023/01/24 01:03:36;;;;;;;35.53;25.13;;;0.50;99.90;;;;;;6124528;23;20420;-78
2023/01/24 01:06:06;;;;;;;34.23;24.83;;;0.50;99.90;;;;;;6124725;23;20547;-79
2023/01/24 01:08:35;;;;;;;38.10;26.33;;;0.40;99.90;;;;;;6125270;23;20196;-76
2023/01/24 01:11:04;;;;;;;38.70;26.60;;;0.50;99.90;;;;;;6125161;23;20205;-79
2023/01/24 01:13:33;;;;;;;40.63;27.23;;;0.40;99.90;;;;;;6124515;23;20178;-77
2023/01/24 01:16:02;;;;;;;40.63;28.47;;;0.40;99.90;;;;;;6124874;23;20256;-77
2023/01/24 01:18:31;;;;;;;42.97;29.37;;;0.40;99.90;;;;;;6124622;23;20428;-77
2023/01/24 01:20:59;;;;;;;43.17;28.83;;;0.40;99.90;;;;;;6124891;23;20182;-76
2023/01/24 01:23:27;;;;;;;41.47;28.57;;;0.40;99.90;;;;;;6123880;23;20469;-76
2023/01/24 01:26:00;;;;;;;44.33;28.20;;;0.40;99.90;;;;;;6124823;23;20489;-77
2023/01/24 01:28:30;;;;;;;42.10;28.00;;;0.40;99.90;;;;;;6125355;23;20230;-77
2023/01/24 01:30:58;;;;;;;40.87;27.10;;;0.40;99.90;;;;;;6124881;23;20421;-78
2023/01/24 01:33:28;;;;;;;42.63;28.13;;;0.40;99.90;;;;;;6123911;23;20182;-79
2023/01/24 01:35:58;;;;;;;38.80;27.17;;;0.40;99.90;;;;;;6125025;23;20247;-77
2023/01/24 01:38:27;;;;;;;39.93;27.27;;;0.40;99.90;;;;;;6125107;23;20414;-79
2023/01/24 01:40:55;;;;;;;37.67;26.60;;;0.40;99.90;;;;;;6124900;23;20178;-77
2023/01/24 01:43:28;;;;;;;41.37;28.90;;;0.40;99.90;;;;;;6124054;23;20210;-76
2023/01/24 01:46:02;;;;;;;41.17;27.30;;;0.40;99.90;;;;;;6124554;23;20182;-79
2023/01/24 01:48:37;;;;;;;42.07;27.67;;;0.40;99.90;;;;;;6124337;23;20481;-78
2023/01/24 01:51:10;;;;;;;42.00;28.33;;;0.40;99.90;;;;;;6124971;23;20174;-78
2023/01/24 01:53:45;;;;;;;43.63;28.30;;;0.30;99.90;;;;;;6124324;23;20175;-78
2023/01/24 01:56:21;;;;;;;45.93;28.57;;;0.40;99.90;;;;;;6124725;23;20189;-78
2023/01/24 01:58:49;;;;;;;47.83;28.53;;;0.40;99.90;;;;;;6125116;23;20501;-78
2023/01/24 02:01:20;;;;;;;44.33;29.37;;;0.30;99.90;;;;;;6124553;23;20183;-77
2023/01/24 02:03:55;;;;;;;46.07;29.90;;;0.40;99.90;;;;;;6124344;23;20219;-77
2023/01/24 02:06:33;;;;;;;46.10;30.40;;;0.30;99.90;;;;;;6124846;23;20734;-78
2023/01/24 02:09:04;;;;;;;45.47;29.60;;;0.30;99.90;;;;;;6124911;23;20387;-77
2023/01/24 02:11:41;;;;;;;46.23;30.80;;;0.30;99.90;;;;;;6124669;23;20374;-78
2023/01/24 02:17:11;;;;;;;46.33;29.03;;;0.40;99.90;;;;;;6064907;23;20183;-79
2023/01/24 02:20:03;;;;;;;47.97;31.20;;;0.40;99.90;;;;;;6112994;23;20413;-77
2023/01/24 02:22:40;;;;;;;47.40;30.67;;;0.40;99.90;;;;;;6125795;23;20202;-78
2023/01/24 02:25:19;;;;;;;49.43;31.37;;;0.40;99.90;;;;;;6125929;23;20445;-78
2023/01/24 02:27:50;;;;;;;51.53;32.07;;;0.40;99.90;;;;;;6125967;23;20213;-76
2023/01/24 02:30:18;;;;;;;53.77;32.97;;;0.40;99.90;;;;;;6126550;23;20717;-78
2023/01/24 02:32:46;;;;;;;46.60;31.07;;;0.50;99.90;;;;;;6126164;23;20422;-78
2023/01/24 02:35:26;;;;;;;48.43;31.63;;;0.40;99.90;;;;;;6125832;23;20182;-79
2023/01/24 02:37:56;;;;;;;47.73;31.27;;;0.40;99.90;;;;;;6126610;23;20178;-78
2023/01/24 02:40:25;;;;;;;49.60;31.47;;;0.40;99.90;;;;;;6126859;23;20189;-77
2023/01/24 02:42:57;;;;;;;48.33;30.17;;;0.40;99.90;;;;;;6126196;23;20539;-77
2023/01/24 02:45:28;;;;;;;49.67;31.13;;;0.40;99.90;;;;;;6126171;23;20253;-77
2023/01/24 02:47:57;;;;;;;50.50;31.00;;;0.40;99.90;;;;;;6126505;23;20523;-79
2023/01/24 02:50:27;;;;;;;49.00;30.37;;;0.40;99.90;;;;;;6126661;23;20501;-79
2023/01/24 02:58:24;;;;;;;50.87;30.80;;;0.50;99.90;;;;;;6125654;23;20417;-77
2023/01/24 03:00:52;;;;;;;51.07;30.57;;;0.40;99.90;;;;;;6126081;23;20391;-77
2023/01/24 03:03:21;;;;;;;46.93;30.17;;;0.40;99.90;;;;;;6125920;23;20178;-76
2023/01/24 03:05:57;;;;;;;49.63;31.30;;;0.50;99.90;;;;;;6126384;23;20186;-78
2023/01/24 03:08:26;;;;;;;50.60;31.20;;;0.40;99.90;;;;;;6125826;23;20202;-77
2023/01/24 03:10:55;;;;;;;54.70;32.77;;;0.50;99.90;;;;;;6125815;23;20181;-77
2023/01/24 03:35:36;;;;;;;58.10;33.10;;;0.50;99.90;;;;;;6125292;23;20391;-77
2023/01/24 03:40:52;;;;;;;60.13;33.37;;;0.50;99.90;;;;;;6126286;23;20193;-77
2023/01/24 03:43:21;;;;;;;58.80;33.13;;;0.60;99.90;;;;;;6128223;23;20181;-78
2023/01/24 03:45:53;;;;;;;58.63;32.63;;;0.50;99.90;;;;;;6132993;23;20206;-77
2023/01/24 03:48:26;;;;;;;60.53;33.73;;;0.50;99.90;;;;;;6127004;23;20853;-77
2023/01/24 03:53:43;;;;;;;51.57;31.23;;;0.50;99.90;;;;;;6125689;23;20174;-77
2023/01/24 03:56:11;;;;;;;60.20;32.27;;;0.60;99.90;;;;;;6125853;23;20405;-77
2023/01/24 03:58:39;;;;;;;61.33;33.87;;;0.60;99.90;;;;;;6125508;23;20196;-76
2023/01/24 04:01:08;;;;;;;50.83;30.40;;;0.60;99.90;;;;;;6125755;23;20402;-77
2023/01/24 04:03:36;;;;;;;51.30;31.23;;;0.60;99.90;;;;;;6124657;23;20269;-77
2023/01/24 04:06:05;;;;;;;49.20;30.43;;;0.60;99.90;;;;;;6125525;23;20198;-77
2023/01/24 04:08:33;;;;;;;48.67;29.83;;;0.70;99.90;;;;;;6125273;23;20277;-77
2023/01/24 04:11:01;;;;;;;44.47;28.90;;;0.60;99.90;;;;;;6124742;23;20465;-77
2023/01/24 04:13:30;;;;;;;43.13;28.17;;;0.70;99.90;;;;;;6125205;23;20738;-77
2023/01/24 04:15:58;;;;;;;40.67;27.47;;;0.70;99.90;;;;;;6125833;23;20205;-77
2023/01/24 04:18:31;;;;;;;43.27;28.27;;;0.70;99.90;;;;;;6125240;23;20197;-77
2023/01/24 04:21:02;;;;;;;45.97;27.97;;;0.60;99.90;;;;;;6125840;23;20269;-78
2023/01/24 04:23:34;;;;;;;44.07;28.13;;;0.70;99.90;;;;;;6124496;23;20202;-78
2023/01/24 04:26:02;;;;;;;45.90;28.73;;;0.60;99.90;;;;;;6125191;23;20500;-77
2023/01/24 04:28:32;;;;;;;42.57;27.70;;;0.70;99.90;;;;;;6125188;23;20209;-78
2023/01/24 04:31:02;;;;;;;41.97;27.93;;;0.70;99.90;;;;;;6125096;23;20182;-78
2023/01/24 04:33:31;;;;;;;44.10;28.60;;;0.60;99.90;;;;;;6124709;23;20213;-79
2023/01/24 04:35:59;;;;;;;42.73;27.77;;;0.60;99.90;;;;;;6125161;23;20182;-78
2023/01/24 04:38:28;;;;;;;41.17;27.20;;;0.60;99.90;;;;;;6124694;23;20174;-78
2023/01/24 04:41:00;;;;;;;45.47;26.80;;;0.70;99.90;;;;;;6125104;23;20662;-78
2023/01/24 04:43:29;;;;;;;42.47;28.60;;;0.70;99.90;;;;;;6125115;23;20182;-79
2023/01/24 04:45:58;;;;;;;43.47;28.97;;;0.60;99.90;;;;;;6125129;23;20274;-77
2023/01/24 04:48:26;;;;;;;42.17;28.73;;;0.70;99.90;;;;;;6125186;23;20450;-77
2023/01/24 04:51:00;;;;;;;44.00;28.50;;;0.60;99.90;;;;;;6125100;23;20187;-77
2023/01/24 04:53:30;;;;;;;49.33;28.67;;;0.60;99.90;;;;;;6124664;23;20177;-77
2023/01/24 04:56:01;;;;;;;43.13;29.27;;;0.70;99.90;;;;;;6124949;23;20177;-79
2023/01/24 04:58:29;;;;;;;43.43;30.00;;;0.70;99.90;;;;;;6124851;23;20980;-78
2023/01/24 05:00:57;;;;;;;40.90;28.07;;;0.70;99.90;;;;;;6124870;23;20501;-79
2023/01/24 05:03:27;;;;;;;45.23;28.93;;;0.70;99.90;;;;;;6124480;23;20190;-77
2023/01/24 05:05:56;;;;;;;42.23;28.50;;;0.60;99.90;;;;;;6124843;23;20206;-79
2023/01/24 05:08:26;;;;;;;42.43;28.53;;;0.60;99.90;;;;;;6124685;23;20202;-78
2023/01/24 05:10:54;;;;;;;39.87;26.67;;;0.60;99.90;;;;;;6125307;23;20178;-78
2023/01/24 05:13:22;;;;;;;42.37;28.23;;;0.70;99.90;;;;;;6124099;23;20930;-78
2023/01/24 05:15:51;;;;;;;40.77;28.17;;;0.60;99.90;;;;;;6125166;23;20183;-78
2023/01/24 05:18:19;;;;;;;41.17;27.73;;;0.60;99.90;;;;;;6124774;23;20220;-78
2023/01/24 05:20:48;;;;;;;40.77;27.37;;;0.60;99.90;;;;;;6124512;23;20186;-79
2023/01/24 05:23:19;;;;;;;39.93;27.87;;;0.60;99.90;;;;;;6123975;23;20433;-78
2023/01/24 05:25:48;;;;;;;39.00;27.50;;;0.60;99.90;;;;;;6125050;23;20414;-77
2023/01/24 05:28:16;;;;;;;38.30;27.13;;;0.60;99.90;;;;;;6124873;23;20183;-79
2023/01/24 05:30:44;;;;;;;40.53;27.60;;;0.60;99.90;;;;;;6124494;23;20186;-78
2023/01/24 05:33:12;;;;;;;41.80;27.40;;;0.60;99.90;;;;;;6123732;23;20218;-79
2023/01/24 05:35:43;;;;;;;42.20;26.87;;;0.60;99.90;;;;;;6124607;23;20182;-77
2023/01/24 05:38:11;;;;;;;39.97;27.50;;;0.60;99.90;;;;;;6124550;23;20645;-78
2023/01/24 05:40:39;;;;;;;40.83;27.63;;;0.70;99.90;;;;;;6124894;23;20233;-77
2023/01/24 05:43:08;;;;;;;39.87;27.37;;;0.60;99.90;;;;;;6124259;23;20260;-79
2023/01/24 05:45:36;;;;;;;41.13;28.07;;;0.60;99.90;;;;;;6124836;23;20179;-77
2023/01/24 05:48:05;;;;;;;40.23;27.37;;;0.70;99.90;;;;;;6124885;23;20182;-77
2023/01/24 05:50:34;;;;;;;41.63;28.83;;;0.60;99.90;;;;;;6124331;23;20442;-79
2023/01/24 05:53:03;;;;;;;43.80;29.10;;;0.70;99.90;;;;;;6124816;23;20213;-78
2023/01/24 05:55:31;;;;;;;41.73;27.67;;;0.70;99.90;;;;;;6124625;23;20430;-78
2023/01/24 05:58:00;;;;;;;39.43;27.93;;;0.60;99.90;;;;;;6124432;23;20762;-78
2023/01/24 06:00:29;;;;;;;41.30;27.90;;;0.70;99.90;;;;;;6123943;23;20258;-78
2023/01/24 06:03:02;;;;;;;42.00;28.77;;;0.70;99.90;;;;;;6124350;23;20178;-79
2023/01/24 06:05:30;;;;;;;42.60;28.90;;;0.70;99.90;;;;;;6125378;23;20241;-77
2023/01/24 06:08:00;;;;;;;44.93;29.20;;;0.70;99.90;;;;;;6124253;23;20544;-79
2023/01/24 06:10:29;;;;;;;47.53;30.77;;;0.70;99.90;;;;;;6124898;23;20281;-79
2023/01/24 06:13:00;;;;;;;42.73;28.63;;;0.70;99.90;;;;;;6124673;23;20506;-77
2023/01/24 06:15:29;;;;;;;43.13;27.83;;;0.60;99.90;;;;;;6125064;23;20167;-79
2023/01/24 06:17:57;;;;;;;44.40;29.80;;;0.60;99.90;;;;;;6124926;23;20182;-78
2023/01/24 06:20:26;;;;;;;44.57;29.80;;;0.70;99.90;;;;;;6125009;23;20565;-78
2023/01/24 06:22:56;;;;;;;48.17;30.27;;;0.70;99.90;;;;;;6124744;23;20184;-77
2023/01/24 06:25:26;;;;;;;42.40;28.23;;;0.70;99.90;;;;;;6124482;23;20383;-77
2023/01/24 06:27:55;;;;;;;44.97;27.20;;;0.70;99.90;;;;;;6124782;23;20898;-78
2023/01/24 06:30:23;;;;;;;41.60;28.37;;;0.70;99.90;;;;;;6124808;23;20208;-78
2023/01/24 06:33:07;;;;;;;45.47;29.37;;;0.60;99.90;;;;;;6124285;23;20414;-79
2023/01/24 06:35:48;;;;;;;46.80;30.10;;;0.60;99.90;;;;;;6125045;23;20783;-78
2023/01/24 06:38:21;;;;;;;42.97;28.50;;;0.70;99.90;;;;;;6124534;23;20682;-77
2023/01/24 06:40:53;;;;;;;42.77;28.00;;;0.70;99.90;;;;;;6125327;23;20187;-79
2023/01/24 06:43:22;;;;;;;46.37;28.03;;;0.70;99.90;;;;;;6123789;23;20185;-77
2023/01/24 06:45:50;;;;;;;44.30;28.93;;;0.70;99.90;;;;;;6124803;23;20271;-78
2023/01/24 06:48:20;;;;;;;42.27;28.20;;;0.80;99.90;;;;;;6125349;23;20563;-77
2023/01/24 06:50:48;;;;;;;41.50;26.43;;;0.80;99.90;;;;;;6124393;23;20438;-79
2023/01/24 06:53:16;;;;;;;37.97;25.93;;;0.80;99.90;;;;;;6124239;23;20639;-78
2023/01/24 06:55:46;;;;;;;41.17;26.97;;;0.80;99.90;;;;;;6124784;23;20186;-77
2023/01/24 06:58:15;;;;;;;39.00;26.70;;;0.80;99.90;;;;;;6124421;23;20422;-79
2023/01/24 07:00:43;;;;;;;41.33;27.07;;;0.80;99.90;;;;;;6126223;23;20493;-77
2023/01/24 07:03:11;;;;;;;41.93;27.40;;;0.80;99.90;;;;;;6126071;23;20237;-77
2023/01/24 07:05:41;;;;;;;44.60;27.33;;;0.80;99.90;;;;;;6126186;23;20563;-77
2023/01/24 07:08:09;;;;;;;41.23;27.67;;;0.80;99.90;;;;;;6126178;23;20403;-78
2023/01/24 07:10:38;;;;;;;42.57;26.33;;;0.80;99.90;;;;;;6126036;23;20202;-78
2023/01/24 07:13:06;;;;;;;41.30;26.73;;;0.80;99.90;;;;;;6126264;23;20570;-78
2023/01/24 07:15:36;;;;;;;41.97;26.93;;;0.90;99.90;;;;;;6126864;23;20186;-78
2023/01/24 07:18:09;;;;;;;40.40;26.37;;;0.90;99.90;;;;;;6127114;23;20183;-78
2023/01/24 07:20:37;;;;;;;41.13;26.53;;;0.90;99.90;;;;;;6126441;23;20269;-78
2023/01/24 07:23:19;;;;;;;44.70;27.93;;;0.90;99.90;;;;;;6125587;23;20186;-78
2023/01/24 07:25:48;;;;;;;42.80;26.37;;;0.90;99.90;;;;;;6125613;23;20509;-77
2023/01/24 07:28:17;;;;;;;44.50;26.97;;;0.90;99.90;;;;;;6126007;23;20627;-77
2023/01/24 07:30:45;;;;;;;48.13;27.53;;;1.00;99.90;;;;;;6126387;23;20202;-78
2023/01/24 07:33:14;;;;;;;43.27;27.47;;;1.00;99.90;;;;;;6125605;23;20273;-78
2023/01/24 07:35:43;;;;;;;42.73;27.23;;;1.10;99.90;;;;;;6126303;23;20182;-78
2023/01/24 07:38:13;;;;;;;44.93;28.53;;;1.00;99.90;;;;;;6126317;23;20182;-78
2023/01/24 07:40:42;;;;;;;45.93;27.97;;;1.00;99.90;;;;;;6125447;23;20501;-78
2023/01/24 07:43:11;;;;;;;48.77;28.63;;;1.00;99.90;;;;;;6125453;23;20265;-78
2023/01/24 07:45:39;;;;;;;48.93;29.50;;;1.00;99.90;;;;;;6125778;23;20665;-78
2023/01/24 07:48:08;;;;;;;43.40;28.33;;;1.00;99.90;;;;;;6125501;23;20646;-78
2023/01/24 07:50:36;;;;;;;44.60;28.33;;;1.00;99.90;;;;;;6125586;23;20204;-78
2023/01/24 07:53:05;;;;;;;44.20;27.90;;;1.00;99.90;;;;;;6125803;23;20437;-78
2023/01/24 07:55:35;;;;;;;49.00;28.93;;;1.00;99.90;;;;;;6126150;23;20431;-78
2023/01/24 07:58:03;;;;;;;44.67;28.30;;;1.00;99.90;;;;;;6125385;23;20249;-78
2023/01/24 08:00:32;;;;;;;44.07;27.07;;;1.00;99.90;;;;;;6125619;23;20202;-78
2023/01/24 08:03:00;;;;;;;44.77;27.97;;;1.00;99.90;;;;;;6125282;23;20425;-77
2023/01/24 08:05:28;;;;;;;44.27;28.17;;;1.20;99.90;;;;;;6125734;23;20210;-77
2023/01/24 08:07:57;;;;;;;44.03;27.50;;;1.10;99.90;;;;;;6126249;23;20518;-77
2023/01/24 08:10:26;;;;;;;48.10;28.30;;;1.10;99.90;;;;;;6125915;23;20198;-78
2023/01/24 08:12:56;;;;;;;44.60;28.40;;;1.10;99.90;;;;;;6125367;23;20178;-79
2023/01/24 08:15:24;;;;;;;42.17;27.57;;;1.10;99.90;;;;;;6126452;23;20217;-78
2023/01/24 08:17:52;;;;;;;43.57;28.37;;;1.20;99.90;;;;;;6126088;23;20701;-79
2023/01/24 08:20:23;;;;;;;42.27;27.00;;;1.20;99.90;;;;;;6125742;23;20182;-78
2023/01/24 08:22:56;;;;;;;43.63;27.43;;;1.10;99.90;;;;;;6125721;23;20242;-77
2023/01/24 08:25:26;;;;;;;45.43;28.53;;;1.10;99.90;;;;;;6125747;23;20250;-77
2023/01/24 08:27:56;;;;;;;47.03;28.47;;;1.10;99.90;;;;;;6126167;23;20182;-77
2023/01/24 08:30:27;;;;;;;44.30;27.27;;;1.20;99.90;;;;;;6125981;23;20240;-78
2023/01/24 08:33:02;;;;;;;41.90;27.10;;;1.20;99.90;;;;;;6126296;23;20183;-78
2023/01/24 08:35:35;;;;;;;42.33;27.93;;;1.20;99.90;;;;;;6126186;23;20620;-78
2023/01/24 08:38:06;;;;;;;46.43;27.10;;;1.20;99.90;;;;;;6126637;23;20200;-79
2023/01/24 08:40:35;;;;;;;47.73;27.43;;;1.30;99.90;;;;;;6126058;23;20193;-77
2023/01/24 08:43:20;;;;;;;46.00;27.60;;;1.30;99.90;;;;;;6125047;23;20185;-77
2023/01/24 08:45:49;;;;;;;43.47;26.70;;;1.30;99.90;;;;;;6126136;23;20210;-78
2023/01/24 08:48:17;;;;;;;46.03;26.80;;;1.30;99.90;;;;;;6126188;23;20188;-78
2023/01/24 08:50:45;;;;;;;42.40;25.87;;;1.40;99.90;;;;;;6125306;23;20202;-78
2023/01/24 08:53:14;;;;;;;41.80;26.93;;;1.30;99.90;;;;;;6125347;23;20218;-76
2023/01/24 08:55:42;;;;;;;40.87;26.07;;;1.40;99.90;;;;;;6132393;23;20205;-77
2023/01/24 08:58:10;;;;;;;40.70;26.57;;;1.40;99.90;;;;;;6126510;23;20198;-77
2023/01/24 09:00:40;;;;;;;41.53;27.03;;;1.40;99.90;;;;;;6125445;23;20174;-76
2023/01/24 09:03:10;;;;;;;44.07;29.00;;;1.40;99.90;;;;;;6126134;23;20228;-78
2023/01/24 09:05:39;;;;;;;43.67;29.40;;;1.40;99.90;;;;;;6127359;23;20162;-76
2023/01/24 09:08:08;;;;;;;41.43;26.40;;;1.50;99.90;;;;;;6127181;23;20186;-77
2023/01/24 09:10:37;;;;;;;42.00;27.00;;;1.50;99.90;;;;;;6126701;23;20670;-76
2023/01/24 09:13:07;;;;;;;41.97;26.23;;;1.50;99.90;;;;;;6125849;23;20171;-77
2023/01/24 09:15:36;;;;;;;38.23;25.13;;;1.60;99.90;;;;;;6126132;23;20222;-78
2023/01/24 09:18:08;;;;;;;40.30;25.93;;;1.60;99.90;;;;;;6126368;23;20253;-77
2023/01/24 09:20:37;;;;;;;38.30;24.43;;;1.60;99.90;;;;;;6125863;23;20177;-77
2023/01/24 09:23:09;;;;;;;38.40;25.43;;;1.60;99.90;;;;;;6125407;23;20178;-76
2023/01/24 09:25:41;;;;;;;38.60;24.70;;;1.70;99.90;;;;;;6126219;23;20189;-78
2023/01/24 09:28:09;;;;;;;34.83;24.53;;;1.70;99.90;;;;;;6125444;23;20189;-78
2023/01/24 09:30:38;;;;;;;34.33;24.33;;;1.60;99.90;;;;;;6124869;23;20276;-78
2023/01/24 09:33:08;;;;;;;34.17;24.70;;;1.70;99.90;;;;;;6125326;23;20193;-78
2023/01/24 09:35:36;;;;;;;32.97;23.00;;;1.70;99.90;;;;;;6126436;23;20253;-76
2023/01/24 09:38:05;;;;;;;32.80;23.87;;;1.60;99.90;;;;;;6125465;23;20189;-76
2023/01/24 09:40:44;;;;;;;35.37;23.57;;;1.60;99.90;;;;;;6126119;23;20511;-77
2023/01/24 09:43:23;;;;;;;36.87;23.97;;;1.70;99.90;;;;;;6125667;23;20576;-76
2023/01/24 09:45:58;;;;;;;32.87;22.77;;;1.80;99.90;;;;;;6125852;23;20567;-76
2023/01/24 09:48:29;;;;;;;33.30;23.83;;;1.70;99.90;;;;;;6125557;23;20228;-77
2023/01/24 09:51:03;;;;;;;30.87;22.10;;;1.70;99.90;;;;;;6125739;23;20222;-76
2023/01/24 09:53:38;;;;;;;28.70;21.90;;;1.80;99.90;;;;;;6125981;23;20202;-76
2023/01/24 09:56:12;;;;;;;28.90;21.43;;;1.90;99.90;;;;;;6126367;23;20189;-77
2023/01/24 09:58:44;;;;;;;30.10;21.17;;;1.90;99.90;;;;;;6126354;23;20190;-76
2023/01/24 10:01:15;;;;;;;30.33;21.70;;;2.00;99.90;;;;;;6126350;23;20177;-76
2023/01/24 10:03:46;;;;;;;29.23;21.63;;;2.00;99.90;;;;;;6126510;23;20167;-76
2023/01/24 10:06:17;;;;;;;27.17;20.57;;;2.00;99.90;;;;;;6126793;23;20166;-76
2023/01/24 10:08:58;;;;;;;28.33;20.53;;;2.00;99.90;;;;;;6126029;23;20261;-76
2023/01/24 10:11:34;;;;;;;29.03;20.37;;;2.00;99.90;;;;;;6125226;23;20209;-78
2023/01/24 10:14:24;;;;;;;29.50;21.27;;;2.10;99.90;;;;;;6125588;23;20782;-77
2023/01/24 10:17:26;;;;;;;26.63;20.17;;;2.20;99.90;;;;;;6125712;23;20255;-79
2023/01/24 10:20:13;;;;;;;27.73;20.27;;;2.20;99.90;;;;;;6115063;23;20499;-77
2023/01/24 10:23:06;;;;;;;27.20;20.50;;;2.10;99.90;;;;;;6125493;23;20225;-76
2023/01/24 10:25:52;;;;;;;27.33;21.07;;;2.10;99.90;;;;;;6125376;23;20182;-76
2023/01/24 10:28:26;;;;;;;27.73;21.43;;;2.10;99.90;;;;;;6125510;23;20217;-77
2023/01/24 10:31:04;;;;;;;32.17;22.13;;;2.10;99.90;;;;;;6125323;23;20189;-79
2023/01/24 10:33:38;;;;;;;29.43;20.70;;;2.10;99.90;;;;;;6125116;23;20189;-77
2023/01/24 10:36:14;;;;;;;29.63;21.90;;;2.10;99.90;;;;;;6127686;23;20206;-76
2023/01/24 10:38:43;;;;;;;28.87;21.80;;;2.40;99.90;;;;;;6127511;23;20163;-76
2023/01/24 10:41:19;;;;;;;33.53;20.87;;;2.20;99.90;;;;;;6127421;23;20190;-76
2023/01/24 10:43:54;;;;;;;27.77;21.60;;;2.20;99.90;;;;;;6127398;23;20201;-77
2023/01/24 10:46:47;;;;;;;31.70;22.77;;;2.10;99.90;;;;;;6127443;23;20184;-78
2023/01/24 10:49:21;;;;;;;36.67;24.77;;;2.30;99.90;;;;;;6101307;23;20194;-77
2023/01/24 10:52:12;;;;;;;46.13;31.10;;;2.20;99.90;;;;;;6128972;23;20206;-78
2023/01/24 10:54:49;;;;;;;33.33;25.53;;;2.20;99.90;;;;;;6128981;23;20190;-76
2023/01/24 10:57:38;;;;;;;30.77;22.13;;;2.30;99.90;;;;;;6129518;23;20273;-77
2023/01/24 11:00:26;;;;;;;31.53;22.37;;;2.30;99.90;;;;;;6127871;23;20193;-76
2023/01/24 11:02:57;;;;;;;30.70;22.93;;;2.30;99.90;;;;;;6126897;23;20179;-75
2023/01/24 11:05:35;;;;;;;29.83;22.00;;;2.30;99.90;;;;;;6127125;23;20171;-75
2023/01/24 11:08:05;;;;;;;30.80;23.03;;;2.30;99.90;;;;;;6127187;23;20188;-77
2023/01/24 11:10:38;;;;;;;30.37;23.40;;;2.20;99.90;;;;;;6127111;23;20179;-78
2023/01/24 11:13:36;;;;;;;30.93;23.43;;;2.40;99.90;;;;;;6126823;23;20209;-77
2023/01/24 11:16:07;;;;;;;30.33;22.90;;;2.40;99.90;;;;;;6126605;23;20781;-78
2023/01/24 11:18:37;;;;;;;30.67;23.40;;;2.30;99.90;;;;;;6126999;23;20186;-78
2023/01/24 11:21:11;;;;;;;29.47;22.50;;;2.40;99.90;;;;;;6126259;23;20259;-76
2023/01/24 11:23:42;;;;;;;32.67;22.23;;;2.40;99.90;;;;;;6125514;23;20201;-76
2023/01/24 11:26:25;;;;;;;30.97;22.50;;;2.30;99.90;;;;;;6127102;23;20291;-76
2023/01/24 11:28:59;;;;;;;28.43;21.57;;;2.30;99.90;;;;;;6127413;23;20225;-77
2023/01/24 11:31:33;;;;;;;28.00;22.13;;;2.30;99.90;;;;;;6126497;23;20176;-76
2023/01/24 11:34:31;;;;;;;33.17;25.83;;;2.20;99.90;;;;;;6126418;23;20182;-77
2023/01/24 11:37:15;;;;;;;30.33;22.97;;;2.20;99.90;;;;;;6127370;23;20171;-76
2023/01/24 11:39:51;;;;;;;30.83;22.63;;;2.20;99.90;;;;;;6127286;23;20249;-78
2023/01/24 11:42:28;;;;;;;28.67;23.13;;;2.20;99.90;;;;;;6126868;23;20182;-76
2023/01/24 11:45:17;;;;;;;27.50;21.37;;;2.30;99.90;;;;;;6128004;23;20186;-76
2023/01/24 11:47:53;;;;;;;29.10;22.13;;;2.30;99.90;;;;;;6128600;23;20178;-77
2023/01/24 11:50:33;;;;;;;29.43;22.10;;;2.20;99.90;;;;;;6127883;23;20221;-76
2023/01/24 11:53:28;;;;;;;29.67;21.97;;;2.30;99.90;;;;;;6126126;23;20252;-77
2023/01/24 11:56:06;;;;;;;27.57;20.30;;;2.30;99.90;;;;;;6127133;23;20210;-77
2023/01/24 11:58:47;;;;;;;27.23;20.57;;;2.40;99.90;;;;;;6126346;23;20189;-76
2023/01/24 12:01:21;;;;;;;26.27;20.03;;;2.50;99.90;;;;;;6126956;23;20181;-77
2023/01/24 12:04:17;;;;;;;25.67;19.30;;;2.50;99.90;;;;;;6126694;23;20796;-77
2023/01/24 12:06:54;;;;;;;25.23;19.97;;;2.50;99.90;;;;;;6123025;23;20634;-76
2023/01/24 12:09:25;;;;;;;27.23;20.60;;;2.50;99.90;;;;;;6125713;23;20189;-76
2023/01/24 12:12:06;;;;;;;25.50;19.27;;;2.60;99.90;;;;;;6125433;23;20533;-76
2023/01/24 12:15:10;;;;;;;24.40;19.23;;;2.50;99.90;;;;;;6126245;23;20167;-76
2023/01/24 12:18:15;;;;;;;23.10;18.53;;;2.50;99.90;;;;;;6126171;23;20177;-78
2023/01/24 12:21:01;;;;;;;24.67;19.13;;;2.50;99.90;;;;;;6111585;23;20298;-76
2023/01/24 12:23:41;;;;;;;25.00;18.67;;;2.60;99.90;;;;;;6125910;23;20224;-77
2023/01/24 12:26:17;;;;;;;31.20;18.80;;;2.50;99.90;;;;;;6126503;23;20170;-77
2023/01/24 12:29:00;;;;;;;22.60;17.70;;;2.70;99.90;;;;;;6125623;23;20181;-77
2023/01/24 12:31:37;;;;;;;24.63;18.03;;;2.60;99.90;;;;;;6126581;23;20246;-77
2023/01/24 12:34:19;;;;;;;23.67;17.90;;;2.60;99.90;;;;;;6127590;23;20198;-77
2023/01/24 12:36:55;;;;;;;22.47;16.67;;;2.50;99.90;;;;;;6127081;23;20222;-76
2023/01/24 12:39:34;;;;;;;23.07;18.00;;;2.50;99.90;;;;;;6128141;23;20182;-77
2023/01/24 12:42:14;;;;;;;21.93;17.77;;;2.50;99.90;;;;;;6128699;23;20561;-76
2023/01/24 12:44:51;;;;;;;27.03;18.83;;;2.40;99.90;;;;;;6127119;23;20170;-77
2023/01/24 12:47:29;;;;;;;22.90;18.03;;;2.50;99.90;;;;;;6126891;23;20210;-76
2023/01/24 12:50:09;;;;;;;22.77;16.47;;;2.50;99.90;;;;;;6127690;23;20209;-78
2023/01/24 12:52:43;;;;;;;23.03;17.83;;;2.60;99.90;;;;;;6126007;23;20504;-77
2023/01/24 12:55:16;;;;;;;23.53;18.93;;;2.60;99.90;;;;;;6125276;23;20204;-78
2023/01/24 12:57:48;;;;;;;22.93;17.23;;;2.50;99.90;;;;;;6125710;23;20190;-77
2023/01/24 13:00:21;;;;;;;20.33;16.63;;;2.50;99.90;;;;;;6126110;23;20205;-78
2023/01/24 13:03:23;;;;;;;23.77;17.90;;;2.40;99.90;;;;;;6125663;23;20162;-78
2023/01/24 13:06:02;;;;;;;23.73;17.80;;;2.50;99.90;;;;;;6127132;23;20198;-75
2023/01/24 13:08:47;;;;;;;23.43;17.17;;;2.40;99.90;;;;;;6126414;23;20174;-78
2023/01/24 13:11:21;;;;;;;22.90;17.87;;;2.40;99.90;;;;;;6123931;23;20523;-79
2023/01/24 13:14:00;;;;;;;23.87;18.23;;;2.40;99.90;;;;;;6128561;23;20196;-76
2023/01/24 13:16:59;;;;;;;23.53;18.40;;;2.40;99.90;;;;;;6125737;23;20198;-76
2023/01/24 13:19:39;;;;;;;21.87;17.27;;;2.40;99.90;;;;;;6124827;23;20269;-77
2023/01/24 13:22:42;;;;;;;23.50;17.97;;;2.40;99.90;;;;;;6124436;23;20591;-78
2023/01/24 13:25:29;;;;;;;22.10;17.60;;;2.40;99.90;;;;;;6124536;23;20197;-78
2023/01/24 13:28:03;;;;;;;26.33;18.03;;;2.50;99.90;;;;;;6125112;23;20167;-77
2023/01/24 13:30:38;;;;;;;22.30;16.97;;;2.40;99.90;;;;;;6124797;23;20176;-76
2023/01/24 13:33:14;;;;;;;24.03;18.43;;;2.30;99.90;;;;;;6125138;23;20527;-76
2023/01/24 13:35:50;;;;;;;22.00;17.20;;;2.30;99.90;;;;;;6124643;23;20202;-77
2023/01/24 13:38:24;;;;;;;22.53;17.77;;;2.40;99.90;;;;;;6125419;23;20664;-78
2023/01/24 13:41:01;;;;;;;24.87;18.27;;;2.30;99.90;;;;;;6124876;23;20181;-77